Time;durP1;ratioP1;P1;durP2;ratioP2;P2;SDS_P1;SDS_P2;PMS_P1;PMS_P2;Temp;Humidity;BMP_temperature;BMP_pressure;BME280_temperature;BME280_humidity;BME280_pressure;Samples;Min_cycle;Max_cycle;Signal;HPM_P1;HPM_P2
2021/11/29 00:01:56;;;;;;;11.08;6.58;;;;;;;2.31;89.59;95841.23;1771410;80;21040;-56
2021/11/29 00:04:23;;;;;;;9.48;6.00;;;;;;;2.35;89.62;95837.73;1771134;79;21145;-57
2021/11/29 00:06:50;;;;;;;10.25;6.25;;;;;;;2.38;89.51;95835.04;1771289;81;22390;-57
2021/11/29 00:09:17;;;;;;;9.25;5.70;;;;;;;2.35;88.66;95846.30;1771058;79;20986;-56
2021/11/29 00:11:44;;;;;;;11.55;5.87;;;;;;;2.33;88.28;95847.92;1771597;81;21494;-57
2021/11/29 00:14:11;;;;;;;13.58;7.30;;;;;;;2.35;88.94;95851.64;1770973;79;21106;-57
2021/11/29 00:16:38;;;;;;;12.53;6.37;;;;;;;2.30;87.84;95857.02;1771258;81;21012;-57
2021/11/29 00:19:05;;;;;;;15.53;7.53;;;;;;;2.28;88.38;95861.85;1775809;79;22283;-57
2021/11/29 00:21:33;;;;;;;12.37;5.95;;;;;;;2.28;88.68;95867.20;1784569;79;21021;-56
2021/11/29 00:24:00;;;;;;;9.33;5.40;;;;;;;2.30;88.73;95861.03;1785072;79;21009;-56
2021/11/29 00:26:27;;;;;;;12.43;5.90;;;;;;;2.30;88.78;95867.70;1784667;80;21144;-56
2021/11/29 00:28:54;;;;;;;13.88;6.08;;;;;;;2.22;87.71;95861.08;1784530;80;20966;-57
2021/11/29 00:31:22;;;;;;;10.80;4.95;;;;;;;2.20;88.02;95865.91;1774907;80;22262;-57
2021/11/29 00:33:49;;;;;;;10.50;4.42;;;;;;;2.18;88.28;95865.40;1771162;79;21006;-57
2021/11/29 00:36:15;;;;;;;13.88;6.45;;;;;;;2.17;87.69;95870.48;1778912;80;21495;-56
2021/11/29 00:38:43;;;;;;;11.00;5.97;;;;;;;2.10;87.94;95873.47;1771153;81;20970;-56
2021/11/29 00:41:10;;;;;;;16.37;8.65;;;;;;;2.06;87.55;95878.31;1771194;81;21052;-57
2021/11/29 00:43:37;;;;;;;14.35;6.78;;;;;;;2.01;87.72;95877.80;1771112;79;21552;-56
2021/11/29 00:46:04;;;;;;;13.22;7.37;;;;;;;1.98;87.80;95884.50;1771106;80;21001;-56
2021/11/29 00:48:31;;;;;;;14.75;7.33;;;;;;;1.98;87.88;95891.72;1771249;79;21539;-57
2021/11/29 00:50:58;;;;;;;15.58;6.90;;;;;;;1.97;87.93;95884.78;1756385;81;21052;-57
2021/11/29 00:53:25;;;;;;;14.05;6.28;;;;;;;1.95;87.92;95889.58;1744760;81;20984;-56
2021/11/29 00:55:51;;;;;;;13.05;8.25;;;;;;;1.97;87.48;95888.80;1771241;81;21578;-56
2021/11/29 00:58:18;;;;;;;12.05;5.65;;;;;;;1.91;87.68;95898.70;1771130;79;21056;-56
2021/11/29 01:00:45;;;;;;;15.08;7.87;;;;;;;1.87;87.09;95899.51;1770979;80;21045;-56
2021/11/29 01:03:12;;;;;;;17.95;9.20;;;;;;;1.78;87.61;95883.80;1771171;79;21045;-56
2021/11/29 01:05:39;;;;;;;16.35;8.43;;;;;;;1.75;87.82;95879.81;1771099;81;21581;-56
2021/11/29 01:08:06;;;;;;;15.98;8.73;;;;;;;1.76;87.79;95888.62;1771121;79;21045;-57
2021/11/29 01:10:33;;;;;;;17.20;8.20;;;;;;;1.75;87.71;95892.37;1771289;81;21087;-56
2021/11/29 01:13:00;;;;;;;14.00;7.33;;;;;;;1.71;87.76;95889.47;1771236;79;20994;-56
2021/11/29 01:15:32;;;;;;;20.35;8.95;;;;;;;1.66;87.41;95889.48;1771179;81;21081;-56
2021/11/29 01:18:02;;;;;;;14.78;8.60;;;;;;;1.62;87.52;95889.75;1771202;79;21499;-56
2021/11/29 01:20:28;;;;;;;15.78;8.08;;;;;;;1.59;87.73;95894.31;1783606;80;27506;-56
2021/11/29 01:22:55;;;;;;;16.67;7.92;;;;;;;1.56;87.80;95892.20;1784785;79;21005;-57
2021/11/29 01:25:24;;;;;;;14.50;7.00;;;;;;;1.55;87.85;95894.08;1780379;80;20994;-57
2021/11/29 01:27:51;;;;;;;16.50;9.25;;;;;;;1.54;87.71;95901.00;1771527;80;27724;-57
2021/11/29 01:30:18;;;;;;;16.42;8.73;;;;;;;1.50;87.93;95903.42;1771272;81;21060;-57
2021/11/29 01:32:44;;;;;;;13.75;6.75;;;;;;;1.49;88.17;95906.38;1771368;79;21679;-56
2021/11/29 01:35:11;;;;;;;14.98;7.65;;;;;;;1.44;88.25;95905.05;1771096;81;22072;-57
2021/11/29 01:37:38;;;;;;;16.25;8.95;;;;;;;1.40;88.39;95905.60;1750415;81;21008;-56
2021/11/29 01:40:07;;;;;;;13.43;7.83;;;;;;;1.44;88.23;95909.05;1774587;80;21582;-57
2021/11/29 01:42:34;;;;;;;16.05;8.43;;;;;;;1.38;88.53;95913.63;1784993;79;21026;-56
2021/11/29 01:45:02;;;;;;;19.57;10.03;;;;;;;1.34;88.53;95925.89;1784798;79;21225;-57
2021/11/29 01:47:29;;;;;;;14.38;7.35;;;;;;;1.33;88.62;95925.09;1784540;79;21041;-57
2021/11/29 01:49:56;;;;;;;17.27;8.43;;;;;;;1.28;88.80;95914.97;1784711;80;21056;-57
2021/11/29 01:52:22;;;;;;;17.00;8.43;;;;;;;1.25;89.50;95904.84;1778711;80;21001;-57
2021/11/29 01:54:49;;;;;;;19.70;9.88;;;;;;;1.22;89.65;95903.53;1771159;81;20997;-57
2021/11/29 01:57:16;;;;;;;17.00;8.40;;;;;;;1.18;89.67;95910.45;1771526;79;21621;-57
2021/11/29 01:59:43;;;;;;;18.67;8.53;;;;;;;1.19;89.45;95913.92;1771236;81;20985;-57
2021/11/29 02:02:11;;;;;;;16.70;8.18;;;;;;;1.21;89.30;95913.14;1771098;79;21126;-57
2021/11/29 02:04:38;;;;;;;14.33;6.83;;;;;;;1.20;89.15;95912.34;1771293;80;20954;-57
2021/11/29 02:07:05;;;;;;;18.07;8.48;;;;;;;1.20;89.17;95907.01;1771284;79;21001;-57
2021/11/29 02:09:32;;;;;;;15.43;8.85;;;;;;;1.17;89.70;95912.06;1771372;81;21622;-57
2021/11/29 02:11:59;;;;;;;17.05;8.50;;;;;;;1.15;90.15;95909.67;1771144;80;21335;-57
2021/11/29 02:14:26;;;;;;;15.68;7.70;;;;;;;1.16;89.78;95916.61;1771046;79;21142;-57
2021/11/29 02:16:53;;;;;;;15.85;8.55;;;;;;;1.10;89.71;95917.68;1771107;81;21033;-56
2021/11/29 02:19:20;;;;;;;17.75;7.65;;;;;;;1.09;89.89;95911.55;1771109;79;21017;-57
2021/11/29 02:21:47;;;;;;;15.88;7.97;;;;;;;1.07;90.48;95911.56;1771164;80;21500;-58
2021/11/29 02:24:14;;;;;;;16.97;8.13;;;;;;;1.07;89.88;95910.23;1770939;79;21133;-57
2021/11/29 02:26:40;;;;;;;20.50;8.13;;;;;;;1.09;89.81;95905.41;1768157;81;21123;-57
2021/11/29 02:29:13;;;;;;;16.37;6.95;;;;;;;1.10;89.72;95903.01;1768813;80;21467;-57
2021/11/29 02:31:43;;;;;;;17.30;7.92;;;;;;;1.12;89.46;95908.36;1773079;79;20973;-57
2021/11/29 02:34:13;;;;;;;15.85;8.90;;;;;;;1.10;89.37;95906.47;1771002;79;21460;-57
2021/11/29 02:36:41;;;;;;;15.98;8.10;;;;;;;1.09;89.42;95910.75;1762116;81;21436;-57
2021/11/29 02:39:09;;;;;;;19.60;9.03;;;;;;;1.09;89.16;95914.75;1751991;81;21006;-58
2021/11/29 02:41:36;;;;;;;18.47;9.03;;;;;;;1.09;89.49;95916.09;1771426;81;20971;-57
2021/11/29 02:44:03;;;;;;;18.55;9.30;;;;;;;1.12;89.56;95915.56;1771223;79;21778;-57
2021/11/29 02:46:30;;;;;;;18.10;9.58;;;;;;;1.16;89.47;95917.94;1771199;81;21359;-57
2021/11/29 02:48:57;;;;;;;18.62;7.60;;;;;;;1.20;89.69;95921.69;1771271;79;21012;-57
2021/11/29 02:51:31;;;;;;;19.12;9.33;;;;;;;1.22;89.51;95932.08;1771611;80;20993;-57
2021/11/29 02:54:13;;;;;;;19.10;8.93;;;;;;;1.24;89.50;95929.39;1784676;79;21460;-57
2021/11/29 02:56:42;;;;;;;18.65;8.88;;;;;;;1.27;89.46;95925.38;1784792;80;21340;-57
2021/11/29 02:59:16;;;;;;;17.67;7.95;;;;;;;1.27;89.52;95926.71;1784616;79;21177;-57
2021/11/29 03:01:48;;;;;;;21.95;10.45;;;;;;;1.26;89.50;95931.78;1783741;79;39285;-57
2021/11/29 03:04:20;;;;;;;19.25;9.45;;;;;;;1.26;89.83;95927.78;1779849;79;21072;-57
2021/11/29 03:06:47;;;;;;;18.87;10.58;;;;;;;1.25;89.55;95926.19;1750607;81;21555;-57
2021/11/29 03:09:14;;;;;;;24.18;11.35;;;;;;;1.26;89.51;95923.78;1771282;79;21516;-57
2021/11/29 03:11:41;;;;;;;20.32;9.48;;;;;;;1.27;89.51;95936.05;1771098;81;21409;-57
2021/11/29 03:14:08;;;;;;;17.37;10.00;;;;;;;1.28;89.38;95933.64;1771104;79;21021;-57
2021/11/29 03:16:35;;;;;;;18.60;10.38;;;;;;;1.22;89.28;95927.54;1771263;81;21005;-57
2021/11/29 03:19:02;;;;;;;17.52;9.78;;;;;;;1.20;89.19;95928.86;1771078;79;20998;-57
2021/11/29 03:21:29;;;;;;;22.75;10.48;;;;;;;1.18;89.19;95929.67;1771394;80;21012;-57
2021/11/29 03:23:59;;;;;;;18.57;9.58;;;;;;;1.17;89.39;95924.88;1771348;79;21519;-57
2021/11/29 03:26:27;;;;;;;25.97;11.70;;;;;;;1.19;89.52;95931.27;1771107;80;21507;-57
2021/11/29 03:29:00;;;;;;;16.05;9.40;;;;;;;1.17;89.36;95925.41;1771413;79;21005;-57
2021/11/29 03:31:29;;;;;;;18.62;8.80;;;;;;;1.15;89.21;95935.02;1771456;80;20978;-57
2021/11/29 03:34:00;;;;;;;18.30;8.45;;;;;;;1.15;89.32;95928.89;1749544;80;21088;-57
2021/11/29 03:36:30;;;;;;;16.60;8.85;;;;;;;1.15;88.95;95935.55;1770083;80;22404;-57
2021/11/29 03:38:57;;;;;;;18.23;9.58;;;;;;;1.08;89.15;95931.30;1770917;79;21002;-57
2021/11/29 03:41:24;;;;;;;16.90;9.00;;;;;;;1.05;89.07;95931.05;1784730;79;20990;-57
2021/11/29 03:43:51;;;;;;;20.70;9.38;;;;;;;0.99;89.45;95927.58;1784719;80;21185;-57
2021/11/29 03:46:18;;;;;;;16.30;8.05;;;;;;;1.00;89.36;95927.84;1784826;80;21510;-57
2021/11/29 03:48:45;;;;;;;15.03;7.67;;;;;;;1.01;89.31;95928.63;1784596;80;21451;-57
2021/11/29 03:51:12;;;;;;;15.65;8.98;;;;;;;1.00;89.30;95923.04;1784680;79;20986;-57
2021/11/29 03:53:39;;;;;;;16.57;9.15;;;;;;;1.01;89.32;95924.63;1773695;80;20914;-57
2021/11/29 03:56:06;;;;;;;15.88;8.65;;;;;;;1.00;89.19;95927.84;1784880;79;21006;-57
2021/11/29 03:58:35;;;;;;;14.85;8.15;;;;;;;1.03;89.23;95925.98;1784933;80;21016;-57
2021/11/29 04:01:02;;;;;;;15.43;7.75;;;;;;;1.02;89.01;95922.23;1785131;79;21727;-57
2021/11/29 04:03:30;;;;;;;18.20;8.05;;;;;;;1.05;89.19;95919.05;1784451;79;21017;-57
2021/11/29 04:05:57;;;;;;;13.48;7.25;;;;;;;1.07;89.28;95914.23;1771288;80;20890;-57
2021/11/29 04:08:24;;;;;;;9.70;5.05;;;;;;;1.10;89.24;95923.02;1771158;79;21001;-57
2021/11/29 04:10:52;;;;;;;16.30;8.88;;;;;;;1.16;89.00;95923.27;1771359;81;21071;-57
2021/11/29 04:13:19;;;;;;;15.23;7.45;;;;;;;1.09;89.05;95926.75;1771739;79;21516;-57
2021/11/29 04:15:46;;;;;;;15.13;8.08;;;;;;;1.09;88.92;95936.09;1778299;79;21001;-57
2021/11/29 04:18:13;;;;;;;13.43;7.97;;;;;;;1.09;89.02;95939.55;1771335;79;21022;-57
2021/11/29 04:20:39;;;;;;;11.78;6.70;;;;;;;1.09;88.99;95939.55;1777489;80;21006;-57
2021/11/29 04:23:07;;;;;;;15.08;7.62;;;;;;;1.09;89.07;95931.55;1785094;80;21594;-57
2021/11/29 04:25:44;;;;;;;12.10;7.10;;;;;;;1.10;89.17;95936.35;1785030;80;21328;-57
2021/11/29 04:28:02;;;;;;;18.45;8.48;;;;;;;1.11;89.18;95929.95;1782839;79;25584;-57
2021/11/29 04:30:29;;;;;;;15.00;8.20;;;;;;;1.12;89.18;95934.23;1772216;79;21576;-57
2021/11/29 04:32:57;;;;;;;16.93;9.95;;;;;;;1.12;89.16;95948.91;1771371;79;21017;-57
2021/11/29 04:35:25;;;;;;;15.80;8.38;;;;;;;1.09;89.17;95946.22;1771289;80;21004;-57
2021/11/29 04:37:52;;;;;;;17.82;7.03;;;;;;;1.08;89.17;95949.97;1747308;81;21569;-57
2021/11/29 04:40:19;;;;;;;19.27;9.78;;;;;;;1.08;88.86;95946.50;1767288;81;21001;-57
2021/11/29 04:42:46;;;;;;;17.82;8.93;;;;;;;0.98;88.84;95951.32;1771077;80;21464;-57
2021/11/29 04:45:13;;;;;;;21.15;11.60;;;;;;;0.92;89.14;95945.72;1780131;80;21036;-57
2021/11/29 04:47:40;;;;;;;35.33;25.37;;;;;;;0.93;89.06;95954.52;1763433;80;21531;-57
2021/11/29 04:50:08;;;;;;;21.12;10.98;;;;;;;0.90;89.08;95947.86;1763319;81;21402;-57
2021/11/29 04:52:35;;;;;;;29.15;15.35;;;;;;;0.84;89.36;95956.38;1764831;81;22126;-57
2021/11/29 04:55:03;;;;;;;30.17;14.50;;;;;;;0.84;89.26;95955.05;1764095;81;21014;-57
2021/11/29 04:57:30;;;;;;;31.80;16.75;;;;;;;0.87;89.33;95960.94;1763182;79;21505;-57
2021/11/29 04:59:57;;;;;;;26.65;15.70;;;;;;;0.87;89.30;95962.27;1763294;80;20959;-57
2021/11/29 05:02:24;;;;;;;19.52;9.38;;;;;;;0.87;89.34;95955.61;1763063;79;22347;-57
2021/11/29 05:04:51;;;;;;;21.40;12.45;;;;;;;0.87;89.28;95962.27;1763382;81;21009;-57
2021/11/29 05:07:18;;;;;;;25.70;14.15;;;;;;;0.87;89.33;95959.61;1763330;79;21021;-57
2021/11/29 05:09:45;;;;;;;24.05;13.50;;;;;;;0.85;89.49;95963.85;1763276;81;21025;-57
2021/11/29 05:12:16;;;;;;;49.65;22.67;;;;;;;0.79;89.47;95968.41;1763194;79;21013;-57
2021/11/29 05:14:46;;;;;;;37.80;19.00;;;;;;;0.76;89.72;95969.45;1763132;81;21017;-57
2021/11/29 05:17:14;;;;;;;60.10;27.07;;;;;;;0.75;89.67;95962.52;1763064;79;20986;-57
2021/11/29 05:19:41;;;;;;;41.37;19.35;;;;;;;0.70;89.93;95961.21;1741974;81;21025;-56
2021/11/29 05:22:08;;;;;;;30.45;17.20;;;;;;;0.67;89.94;95959.05;1762994;79;21021;-56
2021/11/29 05:24:36;;;;;;;31.65;16.50;;;;;;;0.64;90.05;95949.73;1763301;81;21029;-56
2021/11/29 05:27:06;;;;;;;32.75;17.62;;;;;;;0.67;90.08;95949.73;1763009;80;21471;-56
2021/11/29 05:29:33;;;;;;;29.50;15.60;;;;;;;0.63;90.12;95958.80;1762952;81;21017;-56
2021/11/29 05:31:59;;;;;;;24.90;12.55;;;;;;;0.61;90.13;95955.61;1763083;80;21018;-56
2021/11/29 05:34:26;;;;;;;24.65;13.78;;;;;;;0.61;90.07;95953.48;1762915;79;21017;-56
2021/11/29 05:36:53;;;;;;;31.27;14.65;;;;;;;0.64;90.15;95963.59;1760484;81;21516;-56
2021/11/29 05:39:20;;;;;;;28.55;15.25;;;;;;;0.68;90.20;95968.65;1769418;80;21343;-57
2021/11/29 05:41:47;;;;;;;30.68;13.03;;;;;;;0.66;90.23;95969.45;1764637;80;21085;-56
2021/11/29 05:44:15;;;;;;;24.10;12.75;;;;;;;0.67;90.22;95972.39;1762986;79;21038;-56
2021/11/29 05:46:42;;;;;;;27.42;13.38;;;;;;;0.66;90.33;95980.12;1763054;81;21045;-56
2021/11/29 05:49:09;;;;;;;32.63;14.10;;;;;;;0.68;90.12;95988.11;1763053;79;21029;-56
2021/11/29 05:51:36;;;;;;;33.75;15.70;;;;;;;0.65;91.08;95994.52;1765529;80;21549;-56
2021/11/29 05:54:03;;;;;;;29.57;17.57;;;;;;;0.68;91.04;95993.98;1776816;80;21014;-56
2021/11/29 05:56:30;;;;;;;28.95;13.13;;;;;;;0.74;90.65;96000.92;1763030;81;21647;-56
2021/11/29 05:58:57;;;;;;;48.85;22.25;;;;;;;0.78;90.72;96004.13;1761699;79;21013;-56
2021/11/29 06:01:24;;;;;;;87.02;38.10;;;;;;;0.80;90.63;96005.20;1778035;79;22154;-56
2021/11/29 06:03:51;;;;;;;110.42;45.05;;;;;;;0.86;90.83;96011.34;1778930;80;21060;-56
2021/11/29 06:06:18;;;;;;;50.83;23.22;;;;;;;0.83;90.92;96017.45;1775482;80;21072;-56
2021/11/29 06:08:45;;;;;;;37.65;20.02;;;;;;;0.88;90.87;96021.20;1779952;80;21095;-56
2021/11/29 06:11:12;;;;;;;28.23;14.15;;;;;;;0.94;90.91;96021.45;1762064;80;21570;-56
2021/11/29 06:13:39;;;;;;;24.63;12.65;;;;;;;0.97;90.80;96027.06;1762618;80;21072;-56
2021/11/29 06:16:06;;;;;;;20.57;12.30;;;;;;;1.00;90.78;96025.19;1763699;80;21965;-56
2021/11/29 06:18:33;;;;;;;23.83;12.18;;;;;;;1.01;90.58;96028.13;1774718;80;21114;-56
2021/11/29 06:21:00;;;;;;;20.43;9.38;;;;;;;1.03;90.50;96034.02;1767668;80;21557;-56
2021/11/29 06:23:32;;;;;;;22.77;10.80;;;;;;;1.00;90.36;96027.06;1754777;80;20993;-56
2021/11/29 06:25:56;;;;;;;23.85;11.18;;;;;;;1.01;90.47;96039.33;1772058;80;24921;-56
2021/11/29 06:28:23;;;;;;;20.20;9.90;;;;;;;0.99;90.38;96037.47;1769879;80;22132;-56
2021/11/29 06:30:50;;;;;;;19.50;8.73;;;;;;;0.99;90.43;96040.93;1768733;80;21022;-56
2021/11/29 06:33:16;;;;;;;19.95;9.55;;;;;;;1.03;90.54;96039.34;1771135;80;21068;-56
2021/11/29 06:35:44;;;;;;;15.40;8.10;;;;;;;1.06;90.43;96043.34;1759427;80;21076;-57
2021/11/29 06:38:11;;;;;;;20.37;12.50;;;;;;;1.05;90.23;96053.20;1751846;80;21093;-56
2021/11/29 06:40:38;;;;;;;16.65;10.08;;;;;;;1.01;90.11;96053.45;1728384;81;21727;-56
2021/11/29 06:43:05;;;;;;;20.25;10.90;;;;;;;1.01;90.11;96054.00;1721542;83;21043;-56
2021/11/29 06:45:32;;;;;;;19.17;9.73;;;;;;;1.01;90.14;96058.80;1763462;80;21460;-56
2021/11/29 06:47:59;;;;;;;21.85;12.15;;;;;;;1.04;90.11;96063.62;1782188;80;21130;-56
2021/11/29 06:50:26;;;;;;;18.98;11.12;;;;;;;1.06;90.10;96057.47;1771652;80;21048;-56
2021/11/29 06:52:53;;;;;;;17.73;10.78;;;;;;;1.04;89.75;96062.81;1763787;80;21655;-56
2021/11/29 06:55:20;;;;;;;29.60;15.20;;;;;;;1.04;89.76;96066.82;1763963;80;21029;-56
2021/11/29 06:57:48;;;;;;;40.38;19.80;;;;;;;1.03;89.63;96062.02;1760621;80;21040;-56
2021/11/29 07:00:20;;;;;;;21.80;12.65;;;;;;;1.04;89.65;96066.82;1755278;79;21527;-56
2021/11/29 07:02:48;;;;;;;15.25;8.00;;;;;;;1.03;89.65;96069.22;1751480;80;21072;-56
2021/11/29 07:05:15;;;;;;;17.60;9.08;;;;;;;1.06;89.68;96058.81;1756927;79;21316;-57
2021/11/29 07:07:42;;;;;;;13.98;9.13;;;;;;;1.10;89.55;96064.40;1758041;80;21068;-57
2021/11/29 07:10:09;;;;;;;18.67;11.40;;;;;;;1.09;89.33;96070.27;1760000;79;21632;-56
2021/11/29 07:12:36;;;;;;;35.17;18.05;;;;;;;1.11;89.38;96066.00;1756360;79;21116;-56
2021/11/29 07:15:05;;;;;;;23.12;10.53;;;;;;;1.13;89.61;96079.89;1753443;80;21001;-57
2021/11/29 07:17:32;;;;;;;17.00;10.55;;;;;;;1.17;89.73;96071.61;1758411;80;21638;-57
2021/11/29 07:19:59;;;;;;;18.23;9.98;;;;;;;1.15;89.19;96075.08;1753770;78;21041;-56
2021/11/29 07:22:26;;;;;;;16.15;8.10;;;;;;;1.14;89.25;96070.82;1750893;80;21064;-56
2021/11/29 07:24:53;;;;;;;18.57;10.15;;;;;;;1.14;89.20;96069.48;1757956;80;21055;-57
2021/11/29 07:27:22;;;;;;;17.35;8.68;;;;;;;1.18;89.30;96064.40;1761874;80;21088;-57
2021/11/29 07:29:52;;;;;;;33.88;16.95;;;;;;;1.21;89.19;96068.69;1761110;80;21310;-57
2021/11/29 07:32:20;;;;;;;27.48;15.72;;;;;;;1.26;89.31;96065.20;1751264;79;21539;-57
2021/11/29 07:34:47;;;;;;;;;;;;;;;1.26;89.13;96064.67;1760860;78;21107;-57
2021/11/29 07:37:19;;;;;;;35.13;16.07;;;;;;;1.30;88.76;96067.62;1753568;79;20411;-57
2021/11/29 07:39:46;;;;;;;28.20;15.10;;;;;;;1.29;88.79;96071.36;1739273;80;20941;-57
2021/11/29 07:42:14;;;;;;;18.65;11.15;;;;;;;1.24;88.70;96081.48;1760154;80;21104;-57
2021/11/29 07:44:42;;;;;;;19.80;9.85;;;;;;;1.27;88.72;96080.14;1751340;80;21139;-57
2021/11/29 07:47:09;;;;;;;19.23;10.08;;;;;;;1.31;88.42;96086.56;1747315;80;21056;-57
2021/11/29 07:49:36;;;;;;;69.72;28.57;;;;;;;1.29;88.76;96081.50;1754302;79;21143;-57
2021/11/29 07:52:03;;;;;;;21.17;11.68;;;;;;;1.33;88.51;96087.88;1753542;80;21289;-57
2021/11/29 07:54:30;;;;;;;45.95;23.30;;;;;;;1.33;88.52;96083.88;1776224;78;21054;-56
2021/11/29 07:56:57;;;;;;;77.27;39.40;;;;;;;1.39;88.76;96086.03;1752758;80;21053;-57
2021/11/29 07:59:24;;;;;;;20.80;12.18;;;;;;;1.46;88.58;96075.88;1756452;80;21364;-56
2021/11/29 08:01:51;;;;;;;19.90;11.15;;;;;;;1.53;88.44;96075.59;1767174;81;21093;-57
2021/11/29 08:04:18;;;;;;;25.50;13.60;;;;;;;1.58;88.57;96084.94;1736275;80;21575;-57
2021/11/29 08:06:45;;;;;;;16.90;9.43;;;;;;;1.58;88.12;96088.41;1753773;80;21040;-57
2021/11/29 08:09:12;;;;;;;22.87;10.65;;;;;;;1.57;88.25;96084.14;1754419;79;21437;-57
2021/11/29 08:11:39;;;;;;;122.50;51.30;;;;;;;1.59;88.25;96090.53;1744251;81;21509;-57
2021/11/29 08:14:06;;;;;;;24.02;13.08;;;;;;;1.57;88.08;96092.68;1754723;80;20981;-57
2021/11/29 08:16:33;;;;;;;26.15;15.00;;;;;;;1.54;88.05;96094.03;1748221;80;21010;-57
2021/11/29 08:19:00;;;;;;;24.23;12.37;;;;;;;1.51;87.75;96094.55;1753623;80;21121;-56
2021/11/29 08:21:27;;;;;;;37.90;19.67;;;;;;;1.52;87.91;96100.68;1753662;81;21071;-56
2021/11/29 08:23:54;;;;;;;26.65;13.35;;;;;;;1.48;87.96;96097.77;1756282;80;21634;-57
2021/11/29 08:26:21;;;;;;;33.25;19.10;;;;;;;1.50;88.19;96104.95;1759999;80;21034;-56
2021/11/29 08:28:48;;;;;;;31.48;17.85;;;;;;;1.51;87.98;96102.55;1747611;80;21908;-57
2021/11/29 08:31:15;;;;;;;44.03;24.75;;;;;;;1.50;88.04;96111.63;1748654;80;21193;-57
2021/11/29 08:33:42;;;;;;;27.45;13.20;;;;;;;1.46;87.53;96119.13;1763033;80;20945;-56
2021/11/29 08:36:09;;;;;;;23.42;13.62;;;;;;;1.41;87.68;96111.91;1750680;80;21024;-56
2021/11/29 08:38:36;;;;;;;38.70;18.70;;;;;;;1.41;87.68;96111.38;1762506;79;21022;-56
2021/11/29 08:41:03;;;;;;;20.35;10.50;;;;;;;1.41;87.55;96117.24;1754403;80;21020;-56
2021/11/29 08:43:29;;;;;;;28.55;10.75;;;;;;;1.44;87.70;96115.36;1774494;80;21259;-57
2021/11/29 08:45:56;;;;;;;23.12;11.70;;;;;;;1.57;87.68;96117.50;1750202;80;21036;-56
2021/11/29 08:48:24;;;;;;;20.68;10.93;;;;;;;1.56;87.72;96119.11;1763721;79;20973;-57
2021/11/29 08:50:54;;;;;;;19.73;10.05;;;;;;;1.60;87.35;96124.97;1753753;80;21100;-56
2021/11/29 08:53:24;;;;;;;19.70;10.20;;;;;;;1.59;87.25;96137.26;1766263;80;20985;-55
2021/11/29 08:55:50;;;;;;;24.15;13.25;;;;;;;1.50;86.67;96132.98;1755436;80;21575;-58
2021/11/29 08:58:17;;;;;;;19.65;9.75;;;;;;;1.50;86.97;96138.33;1742101;80;20985;-55
2021/11/29 09:00:48;;;;;;;22.25;10.85;;;;;;;1.50;87.16;96142.33;1764544;79;20940;-56
2021/11/29 09:03:15;;;;;;;19.17;11.00;;;;;;;1.50;86.92;96146.34;1760385;80;20989;-56
2021/11/29 09:05:44;;;;;;;35.43;14.68;;;;;;;1.51;86.99;96147.94;1743737;80;21107;-56
2021/11/29 09:08:12;;;;;;;20.43;11.35;;;;;;;1.55;86.95;96150.35;1754896;80;21045;-57
2021/11/29 09:10:39;;;;;;;21.30;11.20;;;;;;;1.45;86.88;96147.66;1753321;79;21151;-56
2021/11/29 09:13:06;;;;;;;32.03;14.83;;;;;;;1.43;87.08;96151.13;1751181;80;21063;-57
2021/11/29 09:15:34;;;;;;;28.00;15.28;;;;;;;1.46;87.27;96155.96;1760716;80;21795;-57
2021/11/29 09:18:00;;;;;;;24.27;12.40;;;;;;;1.46;87.30;96163.97;1752335;78;21056;-57
2021/11/29 09:20:28;;;;;;;25.15;14.47;;;;;;;1.45;86.83;96154.87;1763084;78;21143;-56
2021/11/29 09:22:55;;;;;;;27.87;12.15;;;;;;;1.42;86.73;96161.55;1749718;80;20980;-57
2021/11/29 09:25:22;;;;;;;22.45;11.70;;;;;;;1.43;87.16;96152.47;1737876;80;21036;-57
2021/11/29 09:27:52;;;;;;;22.98;11.38;;;;;;;1.47;87.11;96156.76;1757026;80;21021;-57
2021/11/29 09:30:21;;;;;;;24.37;11.78;;;;;;;1.50;87.30;96156.22;1757501;80;26537;-57
2021/11/29 09:32:48;;;;;;;23.25;13.22;;;;;;;1.53;87.01;96157.00;1745165;80;21107;-56
2021/11/29 09:35:17;;;;;;;21.15;12.68;;;;;;;1.55;87.07;96149.02;1766257;78;21489;-57
2021/11/29 09:37:44;;;;;;;24.90;12.98;;;;;;;1.61;87.26;96145.25;1741697;80;20993;-57
2021/11/29 09:40:19;;;;;;;25.70;12.95;;;;;;;1.66;87.17;96141.27;1752430;80;20973;-57
2021/11/29 09:42:46;;;;;;;19.42;12.03;;;;;;;1.66;86.49;96153.27;1767052;78;21176;-57
2021/11/29 09:45:15;;;;;;;23.40;12.82;;;;;;;1.70;86.86;96146.85;1765715;78;22428;-57
2021/11/29 09:47:41;;;;;;;;;;;;;;;1.71;86.27;96153.82;1759493;80;21159;-56
2021/11/29 09:50:10;;;;;;;25.60;15.43;;;;;;;1.72;86.63;96146.61;1748645;80;20228;-56
2021/11/29 09:52:37;;;;;;;21.47;12.43;;;;;;;1.75;86.55;96160.22;1739255;81;21487;-57
2021/11/29 09:55:05;;;;;;;21.55;11.25;;;;;;;1.73;85.97;96156.22;1749025;79;21103;-56
2021/11/29 09:57:32;;;;;;;20.00;12.37;;;;;;;1.67;86.04;96156.21;1757932;80;22317;-56
2021/11/29 09:59:59;;;;;;;28.00;12.60;;;;;;;1.61;85.73;96157.27;1762654;80;22321;-57
2021/11/29 10:02:26;;;;;;;21.10;11.43;;;;;;;1.62;86.07;96152.22;1754978;80;21059;-57
2021/11/29 10:04:53;;;;;;;23.12;11.43;;;;;;;1.59;85.83;96155.95;1764518;79;21764;-56
2021/11/29 10:07:29;;;;;;;25.75;12.15;;;;;;;1.63;86.11;96160.50;1748578;80;21120;-56
2021/11/29 10:09:56;;;;;;;22.73;12.60;;;;;;;1.65;85.93;96157.02;1745441;80;21797;-56
2021/11/29 10:12:27;;;;;;;26.48;12.75;;;;;;;1.65;85.63;96149.55;1748335;80;21047;-56
2021/11/29 10:15:18;;;;;;;32.20;17.20;;;;;;;1.66;85.74;96152.48;1753775;80;21555;-57
2021/11/29 10:17:48;;;;;;;28.12;14.30;;;;;;;1.75;85.85;96160.22;1764459;80;21202;-56
2021/11/29 10:20:14;;;;;;;23.65;12.90;;;;;;;1.81;85.85;96160.48;1753019;80;21707;-57
2021/11/29 10:22:55;;;;;;;23.60;12.05;;;;;;;1.66;84.90;96162.63;1758483;80;21394;-56
2021/11/29 10:25:22;;;;;;;19.07;10.82;;;;;;;1.72;85.39;96166.09;1740736;80;21507;-56
2021/11/29 10:27:52;;;;;;;20.25;12.33;;;;;;;1.74;85.20;96171.17;1767490;78;20940;-57
2021/11/29 10:30:24;;;;;;;19.52;10.20;;;;;;;1.68;85.34;96175.16;1757423;80;21158;-57
2021/11/29 10:32:50;;;;;;;25.32;12.58;;;;;;;1.60;84.94;96174.89;1737728;80;21209;-56
2021/11/29 10:35:36;;;;;;;22.87;13.62;;;;;;;1.54;85.64;96175.95;1741021;81;21761;-57
2021/11/29 10:38:06;;;;;;;20.95;11.45;;;;;;;1.29;85.65;96181.56;1759342;80;21020;-57
2021/11/29 10:40:33;;;;;;;23.40;13.50;;;;;;;1.34;86.27;96190.89;1759901;78;21012;-56
2021/11/29 10:43:08;;;;;;;23.12;13.03;;;;;;;1.18;87.17;96199.14;1772352;80;21685;-57
2021/11/29 10:45:39;;;;;;;20.52;12.40;;;;;;;1.11;87.31;96202.88;1756476;80;21574;-57
2021/11/29 10:48:10;;;;;;;21.55;12.93;;;;;;;1.04;87.24;96195.66;1726230;80;21490;-57
2021/11/29 10:50:39;;;;;;;22.62;12.80;;;;;;;1.03;87.27;96201.26;1732417;80;20886;-56
2021/11/29 10:53:10;;;;;;;18.10;10.23;;;;;;;0.93;87.24;96195.34;1758902;79;28303;-57
2021/11/29 10:55:58;;;;;;;17.67;11.10;;;;;;;1.01;87.10;96198.03;1760479;79;21062;-56
2021/11/29 10:58:27;;;;;;;23.80;11.68;;;;;;;0.85;87.63;96198.52;1745982;80;21108;-56
2021/11/29 11:00:57;;;;;;;20.48;11.95;;;;;;;0.80;87.92;96203.84;1747930;80;21810;-57
2021/11/29 11:03:24;;;;;;;22.98;12.07;;;;;;;0.86;88.07;96205.47;1733459;81;21502;-56
2021/11/29 11:06:02;;;;;;;22.75;13.90;;;;;;;0.74;88.08;96200.34;1703552;83;21073;-57
2021/11/29 11:08:34;;;;;;;20.80;11.83;;;;;;;0.73;88.45;96197.95;1749945;80;21149;-57
2021/11/29 11:11:02;;;;;;;22.37;14.33;;;;;;;0.71;88.42;96194.21;1748601;80;21034;-57
2021/11/29 11:13:30;;;;;;;22.30;13.65;;;;;;;0.79;88.09;96197.71;1740413;80;21113;-57
2021/11/29 11:15:57;;;;;;;25.70;15.03;;;;;;;0.86;88.23;96207.34;1710593;81;21108;-56
2021/11/29 11:18:37;;;;;;;23.75;13.50;;;;;;;0.93;87.96;96205.20;1752622;80;21534;-56
2021/11/29 11:21:14;;;;;;;27.95;13.95;;;;;;;0.96;87.90;96214.03;1732753;80;21037;-56
2021/11/29 11:23:41;;;;;;;32.50;16.10;;;;;;;1.01;87.69;96212.16;1751813;80;22267;-56
2021/11/29 11:26:29;;;;;;;26.40;13.75;;;;;;;1.05;87.47;96217.27;1742269;80;21245;-57
2021/11/29 11:28:56;;;;;;;31.70;16.65;;;;;;;1.00;87.23;96223.91;1744431;80;21641;-57
2021/11/29 11:31:25;;;;;;;26.73;13.72;;;;;;;0.95;87.45;96226.57;1743548;80;21025;-57
2021/11/29 11:33:54;;;;;;;67.45;26.87;;;;;;;0.93;87.26;96220.67;1744866;80;21052;-56